Time;durP1;ratioP1;P1;durP2;ratioP2;P2;SDS_P1;SDS_P2;PMS_P1;PMS_P2;Temp;Humidity;BMP_temperature;BMP_pressure;BME280_temperature;BME280_humidity;BME280_pressure;Samples;Min_cycle;Max_cycle;Signal;HPM_P1;HPM_P2
2023/04/13 00:01:28;;;;;;;4.22;2.95;;;6.60;99.90;;;;;;4881043;29;20071;-75
2023/04/13 00:03:53;;;;;;;4.80;2.78;;;6.60;99.90;;;;;;4881899;29;20052;-75
2023/04/13 00:06:21;;;;;;;6.32;3.50;;;6.60;99.90;;;;;;4897736;29;20048;-75
2023/04/13 00:08:47;;;;;;;6.32;3.60;;;6.60;99.90;;;;;;4897047;29;20349;-75
2023/04/13 00:11:12;;;;;;;4.82;3.15;;;6.60;99.90;;;;;;4894679;29;20049;-75
2023/04/13 00:13:46;;;;;;;6.10;3.80;;;6.50;99.90;;;;;;4897385;29;20474;-75
2023/04/13 00:16:14;;;;;;;4.85;2.88;;;6.50;99.90;;;;;;4878833;29;20038;-75
2023/04/13 00:18:39;;;;;;;5.00;3.20;;;6.40;99.90;;;;;;4863307;29;20052;-75
2023/04/13 00:21:05;;;;;;;7.03;3.53;;;6.30;99.90;;;;;;4894350;29;20037;-75
2023/04/13 00:23:31;;;;;;;5.43;3.25;;;6.20;99.90;;;;;;4896570;29;20041;-75
2023/04/13 00:25:57;;;;;;;5.35;3.10;;;6.10;99.90;;;;;;4897394;29;20127;-75
2023/04/13 00:28:23;;;;;;;4.63;2.72;;;6.10;99.90;;;;;;4897284;29;20076;-75
2023/04/13 00:30:49;;;;;;;3.72;2.60;;;6.00;99.90;;;;;;4895383;29;20085;-75
2023/04/13 00:33:14;;;;;;;3.67;2.47;;;5.90;99.90;;;;;;4897128;29;20043;-75
2023/04/13 00:35:40;;;;;;;3.90;2.30;;;5.90;99.90;;;;;;4897407;29;20147;-75
2023/04/13 00:38:06;;;;;;;5.22;2.80;;;5.90;99.90;;;;;;4895695;29;20530;-75
2023/04/13 00:40:32;;;;;;;6.93;2.88;;;5.80;99.90;;;;;;4896343;29;20032;-73
2023/04/13 00:42:59;;;;;;;6.57;2.92;;;5.80;99.90;;;;;;4896036;29;20130;-74
2023/04/13 00:45:25;;;;;;;5.78;2.60;;;5.80;99.90;;;;;;4896822;29;20045;-75
2023/04/13 00:47:52;;;;;;;6.47;3.17;;;5.80;99.90;;;;;;4895509;29;20040;-74
2023/04/13 00:50:22;;;;;;;6.53;3.08;;;5.70;99.90;;;;;;4895542;29;20131;-75
2023/04/13 00:52:48;;;;;;;4.18;2.60;;;5.80;99.90;;;;;;4896103;29;20076;-75
2023/04/13 00:55:19;;;;;;;4.18;2.83;;;5.70;99.90;;;;;;4896850;29;20127;-74
2023/04/13 00:57:48;;;;;;;5.95;3.17;;;5.70;99.90;;;;;;4895896;29;20048;-74
2023/04/13 01:00:16;;;;;;;6.25;3.13;;;5.70;99.90;;;;;;4895944;29;20483;-75
2023/04/13 01:02:43;;;;;;;6.05;3.10;;;5.70;99.90;;;;;;4880011;29;20068;-75
2023/04/13 01:05:11;;;;;;;6.90;3.38;;;5.70;99.90;;;;;;4888898;29;20083;-75
2023/04/13 01:08:07;;;;;;;5.97;3.50;;;5.80;99.90;;;;;;4896023;29;20492;-75
2023/04/13 01:10:57;;;;;;;5.80;3.33;;;5.80;99.90;;;;;;4895434;29;20044;-74
2023/04/13 01:13:30;;;;;;;7.70;3.20;;;5.70;99.90;;;;;;4890790;29;20047;-75
2023/04/13 01:16:04;;;;;;;7.10;2.85;;;5.80;99.90;;;;;;4895237;29;20496;-75
2023/04/13 01:18:33;;;;;;;4.65;2.60;;;5.80;99.90;;;;;;4894856;29;20040;-75
2023/04/13 01:21:00;;;;;;;4.63;3.00;;;5.80;99.90;;;;;;4894938;29;20048;-75
2023/04/13 01:23:39;;;;;;;7.97;2.90;;;5.80;99.90;;;;;;4896277;29;20037;-75
2023/04/13 01:26:05;;;;;;;7.13;3.45;;;5.80;99.90;;;;;;4896576;29;20052;-74
2023/04/13 01:28:32;;;;;;;4.80;2.95;;;5.80;99.90;;;;;;4895375;29;20040;-75
2023/04/13 01:31:04;;;;;;;4.57;2.55;;;5.80;99.90;;;;;;4894372;29;20404;-75
2023/04/13 01:33:32;;;;;;;5.78;2.55;;;5.90;99.90;;;;;;4896022;29;20048;-75
2023/04/13 01:35:59;;;;;;;7.05;2.60;;;5.90;99.90;;;;;;4896303;29;20136;-75
2023/04/13 01:38:25;;;;;;;7.18;2.60;;;5.90;99.90;;;;;;4896054;29;20127;-74
2023/04/13 01:40:50;;;;;;;6.78;3.08;;;5.90;99.90;;;;;;4894215;29;20224;-74
2023/04/13 01:43:18;;;;;;;4.80;3.10;;;5.90;99.90;;;;;;4892904;29;20451;-75
2023/04/13 01:45:55;;;;;;;5.03;2.13;;;5.80;99.90;;;;;;4894765;29;20407;-75
2023/04/13 01:48:47;;;;;;;5.63;2.90;;;5.90;99.90;;;;;;4880308;29;20040;-75
2023/04/13 01:51:20;;;;;;;6.93;2.90;;;5.80;99.90;;;;;;4877603;29;20076;-75
2023/04/13 01:53:52;;;;;;;5.28;2.70;;;5.80;99.90;;;;;;4880366;29;20640;-74
2023/04/13 01:56:18;;;;;;;4.38;2.80;;;5.80;99.90;;;;;;4895740;29;20052;-75
2023/04/13 01:58:48;;;;;;;6.30;2.90;;;5.80;99.90;;;;;;4893050;29;20395;-75
2023/04/13 02:01:14;;;;;;;5.40;2.85;;;5.80;99.90;;;;;;4887337;29;20037;-74
2023/04/13 02:03:42;;;;;;;6.93;3.33;;;5.80;99.90;;;;;;4895444;29;20040;-75
2023/04/13 02:06:08;;;;;;;4.68;2.63;;;5.80;99.90;;;;;;4883122;29;20060;-74
2023/04/13 02:08:35;;;;;;;6.63;3.65;;;5.80;99.90;;;;;;4892291;29;20543;-75
2023/04/13 02:11:02;;;;;;;4.55;3.22;;;5.80;99.90;;;;;;4871358;29;20444;-75
2023/04/13 02:13:29;;;;;;;6.60;3.60;;;5.70;99.90;;;;;;4879916;29;20043;-75
2023/04/13 02:15:54;;;;;;;5.97;3.58;;;5.70;99.90;;;;;;4895854;29;20460;-75
2023/04/13 02:18:22;;;;;;;6.22;3.00;;;5.70;99.90;;;;;;4893997;29;20044;-75
2023/04/13 02:20:59;;;;;;;4.60;3.28;;;5.70;99.90;;;;;;4895201;29;20079;-75
2023/04/13 02:23:24;;;;;;;6.65;3.80;;;5.70;99.90;;;;;;4894416;29;20045;-75
2023/04/13 02:25:50;;;;;;;4.68;4.03;;;5.70;99.90;;;;;;4878792;29;20048;-75
2023/04/13 02:28:19;;;;;;;6.15;3.85;;;5.70;99.90;;;;;;4893735;29;20049;-75
2023/04/13 02:30:44;;;;;;;7.25;4.65;;;5.70;99.90;;;;;;4895010;29;20076;-75
2023/04/13 02:33:10;;;;;;;7.10;4.43;;;5.70;99.90;;;;;;4895669;29;20083;-75
2023/04/13 02:35:37;;;;;;;6.50;4.57;;;5.70;99.90;;;;;;4895370;29;20051;-75
2023/04/13 02:38:05;;;;;;;6.25;4.50;;;5.70;99.90;;;;;;4894058;29;20543;-75
2023/04/13 02:40:30;;;;;;;6.63;4.60;;;5.70;99.90;;;;;;4894514;29;20087;-75
2023/04/13 02:42:58;;;;;;;9.75;4.97;;;5.70;99.90;;;;;;4895520;29;20511;-75
2023/04/13 02:45:24;;;;;;;7.70;4.97;;;5.70;99.90;;;;;;4895231;29;20440;-75
2023/04/13 02:47:49;;;;;;;7.30;4.93;;;5.70;99.90;;;;;;4894470;29;20107;-75
2023/04/13 02:50:16;;;;;;;5.95;4.00;;;5.70;99.90;;;;;;4894185;29;20067;-75
2023/04/13 02:52:42;;;;;;;5.53;4.70;;;5.80;99.90;;;;;;4893905;29;20067;-75
2023/04/13 02:55:08;;;;;;;6.53;4.90;;;5.80;99.90;;;;;;4894933;29;20033;-75
2023/04/13 02:57:34;;;;;;;6.40;4.50;;;5.80;99.90;;;;;;4895398;29;20044;-75
2023/04/13 03:00:00;;;;;;;6.72;4.55;;;5.80;99.90;;;;;;4878699;29;20044;-75
2023/04/13 03:02:28;;;;;;;7.38;5.53;;;5.80;99.90;;;;;;4894088;29;20041;-75
2023/04/13 03:04:54;;;;;;;7.28;6.10;;;5.80;99.90;;;;;;4894512;29;20050;-75
2023/04/13 03:07:20;;;;;;;9.93;6.15;;;5.70;99.90;;;;;;4894138;29;20069;-75
2023/04/13 03:09:46;;;;;;;8.32;5.57;;;5.80;99.90;;;;;;4894016;29;20047;-75
2023/04/13 03:12:11;;;;;;;8.70;5.78;;;5.80;99.90;;;;;;4894846;29;20072;-75
2023/04/13 03:14:37;;;;;;;6.35;4.78;;;5.80;99.90;;;;;;4898318;29;20415;-75
2023/04/13 03:17:03;;;;;;;7.57;5.50;;;5.80;99.90;;;;;;4898170;29;20079;-75
2023/04/13 03:19:30;;;;;;;8.88;6.78;;;5.80;99.90;;;;;;4897694;29;20036;-74
2023/04/13 03:21:56;;;;;;;9.98;6.35;;;5.80;99.90;;;;;;4898197;29;20052;-75
2023/04/13 03:24:26;;;;;;;7.32;5.38;;;5.80;99.90;;;;;;4898374;29;20456;-74
2023/04/13 03:26:54;;;;;;;7.15;6.30;;;5.80;99.90;;;;;;4898451;29;20538;-75
2023/04/13 03:29:19;;;;;;;9.52;6.70;;;5.80;99.90;;;;;;4896661;29;20136;-75
2023/04/13 03:31:45;;;;;;;6.72;5.80;;;5.80;99.90;;;;;;4897287;29;20485;-75
2023/04/13 03:34:11;;;;;;;7.40;5.95;;;5.80;99.90;;;;;;4898478;29;20427;-74
2023/04/13 03:36:36;;;;;;;7.65;6.85;;;5.80;99.90;;;;;;4898350;29;20083;-74
2023/04/13 03:39:04;;;;;;;6.72;6.13;;;5.80;99.90;;;;;;4896957;29;20061;-74
2023/04/13 03:41:29;;;;;;;6.60;5.63;;;5.80;99.90;;;;;;4897830;29;20080;-74
2023/04/13 03:43:55;;;;;;;10.10;6.55;;;5.80;99.90;;;;;;4897723;29;20137;-74
2023/04/13 03:46:20;;;;;;;7.90;7.10;;;5.90;99.90;;;;;;4882448;29;20040;-74
2023/04/13 03:48:46;;;;;;;8.73;6.65;;;5.80;99.90;;;;;;4896709;29;20075;-74
2023/04/13 03:51:11;;;;;;;7.95;7.00;;;5.80;99.90;;;;;;4897922;29;20047;-74
2023/04/13 03:53:37;;;;;;;7.53;6.03;;;5.90;99.90;;;;;;4898202;29;20045;-74
2023/04/13 03:56:03;;;;;;;8.18;7.03;;;5.90;99.90;;;;;;4881960;29;20088;-75
2023/04/13 03:58:30;;;;;;;8.30;7.18;;;5.90;99.90;;;;;;4896702;29;20384;-75
2023/04/13 04:00:56;;;;;;;8.35;7.55;;;5.90;99.90;;;;;;4896171;29;20037;-75
2023/04/13 04:03:23;;;;;;;7.55;6.78;;;5.90;99.90;;;;;;4897965;29;20415;-75
2023/04/13 04:05:48;;;;;;;6.72;5.47;;;5.90;99.90;;;;;;4881537;29;20179;-75
2023/04/13 04:08:14;;;;;;;8.10;7.22;;;5.80;99.90;;;;;;4896859;29;20060;-75
2023/04/13 04:10:39;;;;;;;7.78;6.55;;;5.70;99.90;;;;;;4896731;29;20447;-74
2023/04/13 04:13:05;;;;;;;8.52;7.65;;;5.70;99.90;;;;;;4897550;29;20065;-75
2023/04/13 04:15:31;;;;;;;10.20;7.20;;;5.60;99.90;;;;;;4896970;29;20063;-75
2023/04/13 04:17:56;;;;;;;7.35;6.53;;;5.60;99.90;;;;;;4897151;29;20048;-75
2023/04/13 04:20:22;;;;;;;9.80;8.70;;;5.50;99.90;;;;;;4896329;29;20064;-74
2023/04/13 04:22:50;;;;;;;8.20;7.40;;;5.40;99.90;;;;;;4896616;29;20112;-75
2023/04/13 04:25:21;;;;;;;10.32;8.85;;;5.40;99.90;;;;;;4896523;29;20160;-74
2023/04/13 04:27:56;;;;;;;10.57;8.55;;;5.30;99.90;;;;;;4897293;29;20531;-75
2023/04/13 04:30:23;;;;;;;11.13;9.52;;;5.20;99.90;;;;;;4896324;29;20071;-75
2023/04/13 04:32:51;;;;;;;10.32;9.23;;;5.20;99.90;;;;;;4897042;29;20051;-75
2023/04/13 04:35:24;;;;;;;13.80;10.00;;;5.20;99.90;;;;;;4895496;29;20070;-75
2023/04/13 04:37:54;;;;;;;12.48;9.32;;;5.10;99.90;;;;;;4880991;29;20048;-75
2023/04/13 04:40:21;;;;;;;12.00;9.50;;;5.10;99.90;;;;;;4896520;29;20421;-75
2023/04/13 04:42:47;;;;;;;11.18;9.45;;;5.10;99.90;;;;;;4896755;29;20556;-75
2023/04/13 04:45:15;;;;;;;12.30;10.07;;;5.10;99.90;;;;;;4896102;29;20218;-74
2023/04/13 04:47:42;;;;;;;12.13;10.88;;;5.10;99.90;;;;;;4896694;29;20037;-75
2023/04/13 04:50:13;;;;;;;12.00;10.57;;;5.00;99.90;;;;;;4892546;29;20108;-74
2023/04/13 04:52:39;;;;;;;13.85;11.30;;;5.00;99.90;;;;;;4896863;29;20164;-74
2023/04/13 04:55:05;;;;;;;13.35;10.68;;;5.00;99.90;;;;;;4896274;29;20048;-74
2023/04/13 04:57:32;;;;;;;13.00;10.25;;;4.90;99.90;;;;;;4895590;29;20444;-74
2023/04/13 04:59:58;;;;;;;14.57;10.57;;;4.90;99.90;;;;;;4893880;29;20408;-74
2023/04/13 05:02:24;;;;;;;13.55;11.48;;;4.90;99.90;;;;;;4896332;29;20391;-74
2023/04/13 05:04:51;;;;;;;14.73;10.80;;;4.90;99.90;;;;;;4895118;29;20052;-74
2023/04/13 05:07:17;;;;;;;14.80;11.48;;;4.90;99.90;;;;;;4879626;29;20036;-74
2023/04/13 05:09:44;;;;;;;16.23;12.05;;;5.00;99.90;;;;;;4893742;29;20032;-74
2023/04/13 05:12:10;;;;;;;14.20;11.05;;;5.10;99.90;;;;;;4895104;29;20123;-73
2023/04/13 05:14:36;;;;;;;12.50;9.82;;;5.20;99.90;;;;;;4896390;29;20170;-75
2023/04/13 05:17:02;;;;;;;13.32;10.85;;;5.20;99.90;;;;;;4880894;29;20558;-74
2023/04/13 05:19:27;;;;;;;11.40;9.50;;;5.20;99.90;;;;;;4875309;29;20044;-75
2023/04/13 05:21:53;;;;;;;12.75;10.02;;;5.20;99.90;;;;;;4893295;29;20045;-75
2023/04/13 05:24:19;;;;;;;13.02;9.77;;;5.20;99.90;;;;;;4895319;29;20088;-73
2023/04/13 05:26:44;;;;;;;16.10;9.88;;;5.20;99.90;;;;;;4876934;29;20040;-74
2023/04/13 05:29:10;;;;;;;15.50;10.48;;;5.30;99.90;;;;;;4893824;29;20123;-74
2023/04/13 05:31:36;;;;;;;13.50;9.68;;;5.30;99.90;;;;;;4878188;29;20043;-74
2023/04/13 05:34:02;;;;;;;12.98;9.07;;;5.30;99.90;;;;;;4895966;29;20561;-74
2023/04/13 05:36:28;;;;;;;17.23;8.98;;;5.40;99.90;;;;;;4895541;29;20056;-73
2023/04/13 05:38:55;;;;;;;14.43;9.88;;;5.40;99.90;;;;;;4895898;29;20104;-74
2023/04/13 05:41:21;;;;;;;15.85;10.77;;;5.50;99.90;;;;;;4894101;29;20514;-74
2023/04/13 05:43:48;;;;;;;16.80;11.10;;;5.50;99.90;;;;;;4894470;29;20048;-73
2023/04/13 05:46:14;;;;;;;16.17;10.70;;;5.50;99.90;;;;;;4895767;29;20072;-73
2023/04/13 05:48:42;;;;;;;12.95;10.30;;;5.60;99.90;;;;;;4895792;29;20056;-73
2023/04/13 05:51:09;;;;;;;18.85;11.70;;;5.60;99.90;;;;;;4895829;29;20054;-73
2023/04/13 05:53:35;;;;;;;16.85;12.05;;;5.60;99.90;;;;;;4879139;29;20502;-73
2023/04/13 05:56:00;;;;;;;16.35;13.30;;;5.80;99.90;;;;;;4895986;29;20144;-74
2023/04/13 05:58:26;;;;;;;18.42;13.82;;;5.90;99.90;;;;;;4895479;29;20064;-75
2023/04/13 06:00:52;;;;;;;14.50;12.90;;;6.00;99.90;;;;;;4877232;29;20459;-76
2023/04/13 06:03:19;;;;;;;13.82;11.90;;;6.00;99.90;;;;;;4893861;29;20044;-74
2023/04/13 06:05:45;;;;;;;15.55;12.00;;;5.90;99.90;;;;;;4895408;29;20064;-75
2023/04/13 06:08:12;;;;;;;15.77;12.70;;;5.90;99.90;;;;;;4890880;29;20328;-74
2023/04/13 06:24:54;;;;;;;14.85;8.52;;;5.90;99.90;;;;;;5045056;28;20404;-74
2023/04/13 06:27:19;;;;;;;12.18;8.88;;;6.50;99.90;;;;;;5042084;28;20046;-74
2023/04/13 06:29:45;;;;;;;12.63;8.82;;;6.60;99.90;;;;;;5008052;23;20069;-79
2023/04/13 06:32:14;;;;;;;11.20;7.45;;;6.70;99.90;;;;;;4969910;28;20066;-78
2023/04/13 06:34:40;;;;;;;11.50;8.02;;;6.80;99.90;;;;;;4969483;28;20069;-79
2023/04/13 06:37:05;;;;;;;12.60;7.95;;;6.80;99.90;;;;;;4965530;28;20039;-79
2023/04/13 06:42:20;;;;;;;11.10;7.72;;;6.90;99.90;;;;;;4973579;28;20406;-79
2023/04/13 06:44:48;;;;;;;14.80;8.85;;;6.90;99.90;;;;;;5038437;28;20043;-78
2023/04/13 06:47:14;;;;;;;12.15;7.85;;;7.00;99.90;;;;;;4952808;28;20043;-79
2023/04/13 06:49:45;;;;;;;11.52;7.47;;;7.10;99.90;;;;;;4949102;28;20066;-78
2023/04/13 06:52:14;;;;;;;12.65;7.95;;;7.10;99.90;;;;;;4945459;28;20103;-78
2023/04/13 06:54:45;;;;;;;13.60;7.57;;;7.20;99.90;;;;;;4951927;28;20107;-78
2023/04/13 06:57:17;;;;;;;10.05;7.10;;;7.10;99.90;;;;;;4949448;28;20504;-78
2023/04/13 06:59:48;;;;;;;10.35;6.88;;;7.10;99.90;;;;;;4944649;28;20086;-78
2023/04/13 07:02:25;;;;;;;9.95;6.80;;;7.00;99.90;;;;;;4944656;28;20180;-79
2023/04/13 07:04:51;;;;;;;12.07;7.20;;;7.10;99.90;;;;;;4949179;28;20039;-78
2023/04/13 07:07:26;;;;;;;12.48;6.18;;;7.20;99.90;;;;;;4949696;28;20082;-78
2023/04/13 07:09:51;;;;;;;11.10;5.70;;;7.20;99.90;;;;;;4949458;28;20104;-78
2023/04/13 07:12:18;;;;;;;9.48;5.45;;;7.30;99.90;;;;;;4945803;28;20422;-78
2023/04/13 07:14:45;;;;;;;10.25;6.45;;;7.30;99.90;;;;;;4949026;28;20035;-78
2023/04/13 07:17:17;;;;;;;8.90;5.57;;;7.40;99.90;;;;;;4948939;28;20035;-79
2023/04/13 07:19:54;;;;;;;10.30;5.30;;;7.50;99.90;;;;;;4943465;28;20043;-77
2023/04/13 07:22:23;;;;;;;11.02;5.18;;;7.50;99.90;;;;;;4958717;28;20105;-77
2023/04/13 07:24:50;;;;;;;8.25;5.72;;;7.50;99.90;;;;;;4957433;28;20054;-78
2023/04/13 07:27:18;;;;;;;8.93;5.40;;;7.40;99.90;;;;;;4936056;29;20047;-78
2023/04/13 07:29:47;;;;;;;11.30;6.15;;;7.50;99.90;;;;;;4944790;29;20051;-78
2023/04/13 07:32:13;;;;;;;9.07;4.70;;;7.60;99.90;;;;;;4935990;28;20047;-78
2023/04/13 07:34:48;;;;;;;10.43;5.05;;;7.60;99.90;;;;;;4951461;28;20154;-78
2023/04/13 07:37:14;;;;;;;10.43;4.97;;;7.60;99.90;;;;;;5019485;28;20052;-78
2023/04/13 07:39:40;;;;;;;9.82;4.88;;;7.50;99.90;;;;;;4930432;28;20070;-78
2023/04/13 07:42:10;;;;;;;7.50;4.40;;;7.50;99.90;;;;;;4935507;29;20051;-79
2023/04/13 07:44:39;;;;;;;8.27;3.60;;;7.80;99.90;;;;;;4935585;29;20093;-78
2023/04/13 07:47:12;;;;;;;6.53;3.83;;;7.90;99.90;;;;;;4947496;29;20047;-78
2023/04/13 07:49:41;;;;;;;6.88;3.60;;;8.00;99.90;;;;;;4935870;29;20055;-78
2023/04/13 07:52:07;;;;;;;6.95;4.15;;;8.00;99.90;;;;;;4936330;29;20040;-78
2023/04/13 07:54:39;;;;;;;7.00;4.00;;;8.10;99.90;;;;;;4935963;29;20053;-79
2023/04/13 07:57:07;;;;;;;7.03;3.45;;;8.10;99.90;;;;;;4930631;28;20069;-78
2023/04/13 07:59:33;;;;;;;8.60;4.18;;;8.10;99.90;;;;;;4928680;28;20050;-78
2023/04/13 08:01:59;;;;;;;7.97;3.40;;;8.10;99.90;;;;;;4951717;28;20502;-78
2023/04/13 08:04:28;;;;;;;8.10;2.47;;;8.10;99.90;;;;;;4935605;28;20054;-78
2023/04/13 08:07:02;;;;;;;5.57;2.42;;;8.10;99.90;;;;;;4931967;29;20115;-78
2023/04/13 08:09:36;;;;;;;6.95;3.35;;;8.20;99.90;;;;;;4935438;29;20043;-77
2023/04/13 08:12:02;;;;;;;5.20;2.70;;;8.20;99.90;;;;;;4935353;28;20043;-77
2023/04/13 08:14:33;;;;;;;4.30;2.65;;;8.30;99.90;;;;;;4935828;28;20070;-78
2023/04/13 08:17:16;;;;;;;7.13;3.15;;;8.40;99.90;;;;;;4946248;29;20040;-79
2023/04/13 08:19:42;;;;;;;6.45;4.20;;;8.50;99.90;;;;;;4935777;28;20053;-78
2023/04/13 08:22:11;;;;;;;6.78;3.85;;;8.50;99.90;;;;;;4951168;29;20039;-78
2023/04/13 08:24:40;;;;;;;8.50;4.38;;;8.70;99.90;;;;;;4935109;28;20099;-78
2023/04/13 08:27:12;;;;;;;7.25;3.92;;;8.80;99.90;;;;;;4947857;29;20039;-78
2023/04/13 08:29:39;;;;;;;8.70;3.70;;;8.90;99.90;;;;;;4935690;28;20478;-79
2023/04/13 08:32:08;;;;;;;5.90;3.35;;;8.90;99.90;;;;;;4935530;28;20062;-78
2023/04/13 08:34:37;;;;;;;5.45;3.22;;;8.90;99.90;;;;;;4950845;28;20126;-78
2023/04/13 08:37:06;;;;;;;7.80;3.28;;;8.80;99.90;;;;;;4930541;29;20526;-79
2023/04/13 08:39:32;;;;;;;3.72;2.20;;;8.70;99.90;;;;;;4934825;29;20498;-78
2023/04/13 08:41:59;;;;;;;4.50;2.33;;;8.70;99.90;;;;;;4936212;28;20055;-78
2023/04/13 08:44:32;;;;;;;4.90;2.70;;;8.50;99.90;;;;;;4934810;28;20503;-78
2023/04/13 08:46:59;;;;;;;5.70;3.20;;;8.40;99.90;;;;;;4931684;29;20054;-78
2023/04/13 08:49:31;;;;;;;5.78;2.95;;;8.30;99.90;;;;;;4934783;29;20077;-79
2023/04/13 08:52:08;;;;;;;4.38;2.20;;;8.20;99.90;;;;;;4935081;28;20039;-78
2023/04/13 08:54:34;;;;;;;5.25;2.63;;;8.10;99.90;;;;;;4934501;28;20126;-78
2023/04/13 08:57:01;;;;;;;6.13;2.85;;;8.40;99.90;;;;;;4931722;29;20127;-78
2023/04/13 08:59:29;;;;;;;4.55;2.10;;;9.00;99.90;;;;;;4932324;28;20054;-78
2023/04/13 09:01:57;;;;;;;2.85;1.38;;;9.10;99.90;;;;;;4934802;29;20043;-78
2023/04/13 09:04:30;;;;;;;5.85;1.52;;;9.20;99.90;;;;;;4934521;28;20048;-78
2023/04/13 09:06:58;;;;;;;3.88;1.50;;;9.10;99.90;;;;;;4931483;28;20054;-79
2023/04/13 09:09:26;;;;;;;4.85;2.00;;;8.80;99.90;;;;;;4935153;29;20051;-78
2023/04/13 09:11:55;;;;;;;4.80;1.88;;;8.50;99.90;;;;;;4935765;28;20138;-79
2023/04/13 09:14:22;;;;;;;7.60;2.30;;;8.40;99.90;;;;;;4950266;28;20047;-78
2023/04/13 09:16:49;;;;;;;10.18;3.05;;;8.20;99.90;;;;;;4930901;28;20039;-78
2023/04/13 09:19:27;;;;;;;3.67;1.67;;;7.90;99.90;;;;;;4935591;28;20134;-77
2023/04/13 09:22:13;;;;;;;3.88;1.60;;;7.70;99.90;;;;;;4935914;29;20039;-78
2023/04/13 09:24:42;;;;;;;3.85;1.60;;;7.20;99.90;;;;;;4923533;28;20050;-77
2023/04/13 09:27:19;;;;;;;4.68;1.90;;;6.80;99.90;;;;;;4934512;28;20108;-78
2023/04/13 09:29:55;;;;;;;4.90;1.90;;;6.70;99.90;;;;;;4929453;28;20517;-77
2023/04/13 09:32:30;;;;;;;5.45;2.40;;;6.70;99.90;;;;;;4934262;29;20046;-78
2023/04/13 09:35:03;;;;;;;7.88;3.05;;;6.90;99.90;;;;;;4950363;28;20419;-77
2023/04/13 09:37:31;;;;;;;;;;;7.60;99.90;;;;;;4950920;29;20078;-77
2023/04/13 09:40:17;;;;;;;6.38;2.70;;;8.40;99.90;;;;;;4943732;29;19918;-77
2023/04/13 09:43:03;;;;;;;7.80;2.83;;;9.10;99.90;;;;;;4929199;29;20049;-78
2023/04/13 09:45:37;;;;;;;7.05;2.28;;;9.80;99.90;;;;;;4933877;28;20125;-78
2023/04/13 09:48:04;;;;;;;5.28;1.98;;;10.40;99.90;;;;;;4949631;28;20047;-78
2023/04/13 09:50:35;;;;;;;6.50;2.25;;;10.60;99.90;;;;;;4927847;28;20471;-78
2023/04/13 09:53:03;;;;;;;5.57;2.10;;;10.50;99.90;;;;;;4933914;29;20492;-77
2023/04/13 09:55:36;;;;;;;10.52;2.60;;;10.70;99.90;;;;;;4932115;28;20487;-78
2023/04/13 09:58:08;;;;;;;8.85;2.50;;;10.50;99.90;;;;;;4928687;29;20085;-77
2023/04/13 10:00:40;;;;;;;9.93;2.65;;;10.30;99.90;;;;;;4934241;28;20038;-77
2023/04/13 10:03:14;;;;;;;12.82;3.00;;;10.10;99.90;;;;;;4945468;29;20093;-78
2023/04/13 10:05:41;;;;;;;8.85;2.88;;;9.90;99.90;;;;;;4929407;29;20079;-77
2023/04/13 10:08:08;;;;;;;7.47;2.42;;;9.70;99.90;;;;;;4933582;28;20135;-77
2023/04/13 10:10:35;;;;;;;8.43;2.75;;;9.50;99.90;;;;;;4949729;28;20078;-77
2023/04/13 10:13:25;;;;;;;9.27;3.15;;;9.30;99.90;;;;;;4933674;28;20036;-78
2023/04/13 10:16:18;;;;;;;11.65;3.30;;;9.30;99.90;;;;;;4945179;29;20512;-77
2023/04/13 10:19:03;;;;;;;14.68;3.25;;;9.90;99.90;;;;;;4896089;29;20040;-77
2023/04/13 10:21:38;;;;;;;10.10;3.53;;;10.60;99.90;;;;;;4917285;28;20047;-77
2023/04/13 10:24:08;;;;;;;10.60;2.72;;;10.70;99.90;;;;;;4946917;29;20055;-77
2023/04/13 10:26:35;;;;;;;11.13;2.90;;;10.60;99.90;;;;;;4950677;28;20035;-77
2023/04/13 10:29:05;;;;;;;10.27;3.00;;;10.60;99.90;;;;;;4948365;29;20043;-77
2023/04/13 10:31:39;;;;;;;13.25;3.38;;;10.60;99.90;;;;;;4933391;28;20116;-77
2023/04/13 10:34:09;;;;;;;10.95;2.80;;;10.80;99.90;;;;;;4949244;29;20047;-77
2023/04/13 10:36:41;;;;;;;9.18;2.67;;;10.90;99.90;;;;;;5016759;28;20169;-77
2023/04/13 10:39:08;;;;;;;10.20;2.97;;;11.10;99.90;;;;;;4931317;28;20047;-77
2023/04/13 10:41:35;;;;;;;12.10;3.53;;;11.20;99.90;;;;;;4941979;29;20044;-78
2023/04/13 10:44:07;;;;;;;13.35;3.97;;;11.40;99.90;;;;;;4946296;28;20054;-78
2023/04/13 10:46:36;;;;;;;16.42;3.60;;;11.60;99.90;;;;;;4933456;29;20047;-77
2023/04/13 10:49:05;;;;;;;11.38;3.30;;;11.40;99.90;;;;;;4949385;29;20507;-77
2023/04/13 10:51:39;;;;;;;14.68;3.70;;;11.60;99.90;;;;;;4949326;28;20127;-77
2023/04/13 10:54:07;;;;;;;11.30;3.15;;;11.90;99.90;;;;;;4926145;28;20049;-77
2023/04/13 10:56:33;;;;;;;10.18;2.78;;;12.00;99.90;;;;;;4932513;29;20073;-78
2023/04/13 10:58:58;;;;;;;11.40;2.97;;;11.90;99.90;;;;;;4949116;28;20106;-77
2023/04/13 11:01:25;;;;;;;13.20;3.22;;;11.50;99.90;;;;;;4940881;28;20051;-76
2023/04/13 11:03:53;;;;;;;14.23;3.63;;;11.00;99.90;;;;;;4948250;29;20059;-77
2023/04/13 11:06:19;;;;;;;10.95;3.90;;;10.60;99.90;;;;;;4952597;29;20040;-78
2023/04/13 11:08:57;;;;;;;12.63;3.35;;;10.50;99.90;;;;;;4936883;28;20043;-77
2023/04/13 11:11:24;;;;;;;12.38;3.38;;;10.40;99.90;;;;;;4945681;29;20051;-77
2023/04/13 11:13:52;;;;;;;12.93;3.13;;;10.40;99.90;;;;;;4925496;29;20130;-77
2023/04/13 11:16:20;;;;;;;16.02;3.58;;;10.40;99.90;;;;;;4949879;29;20122;-77
2023/04/13 11:18:45;;;;;;;13.88;3.55;;;10.50;99.90;;;;;;4951948;29;20082;-77
2023/04/13 11:21:15;;;;;;;13.20;3.35;;;10.90;99.90;;;;;;4930200;29;20476;-78
2023/04/13 11:23:50;;;;;;;11.88;3.13;;;11.30;99.90;;;;;;4935623;29;20049;-78
2023/04/13 11:26:16;;;;;;;13.13;3.33;;;11.60;99.90;;;;;;5019637;28;20086;-78
2023/04/13 11:28:46;;;;;;;12.57;3.08;;;11.30;99.90;;;;;;4935740;28;20079;-77
2023/04/13 11:31:17;;;;;;;14.13;3.35;;;11.10;99.90;;;;;;4930367;28;20394;-77
2023/04/13 11:33:48;;;;;;;11.48;3.40;;;11.00;99.90;;;;;;4936824;28;20055;-76
2023/04/13 11:36:19;;;;;;;10.80;3.22;;;10.90;99.90;;;;;;4936045;28;20070;-77
2023/04/13 11:38:46;;;;;;;11.60;2.75;;;11.00;99.90;;;;;;4951866;29;20062;-77
2023/04/13 11:41:13;;;;;;;11.90;3.00;;;11.00;99.90;;;;;;4930039;29;20044;-77
2023/04/13 11:43:40;;;;;;;9.98;2.72;;;11.10;99.90;;;;;;4951323;29;20051;-77
2023/04/13 11:46:09;;;;;;;8.77;2.90;;;11.00;99.90;;;;;;4951630;29;20089;-76
2023/04/13 11:48:35;;;;;;;11.40;2.88;;;10.90;99.90;;;;;;4951716;29;20083;-76
2023/04/13 11:51:01;;;;;;;12.23;2.70;;;10.80;99.90;;;;;;4945248;29;20040;-77
2023/04/13 11:53:27;;;;;;;11.43;3.60;;;10.70;99.90;;;;;;4943267;28;20051;-77
2023/04/13 11:55:53;;;;;;;11.48;3.22;;;10.60;99.90;;;;;;4951518;29;20054;-77
2023/04/13 11:58:22;;;;;;;15.20;3.35;;;10.40;99.90;;;;;;4935441;29;20046;-77
2023/04/13 12:00:48;;;;;;;11.52;3.00;;;10.40;99.90;;;;;;4946341;28;20050;-78
2023/04/13 12:03:16;;;;;;;10.77;2.45;;;10.30;99.90;;;;;;4935104;29;20043;-77
2023/04/13 12:05:43;;;;;;;11.75;3.00;;;10.30;99.90;;;;;;4935756;28;20474;-77
2023/04/13 12:08:19;;;;;;;11.30;3.05;;;10.30;99.90;;;;;;4935492;28;20100;-76
2023/04/13 12:10:45;;;;;;;12.40;3.42;;;10.20;99.90;;;;;;4938544;29;20036;-77
2023/04/13 12:13:12;;;;;;;10.20;2.63;;;10.50;99.90;;;;;;4923453;29;20054;-76
2023/04/13 12:15:43;;;;;;;10.18;2.55;;;11.30;99.90;;;;;;4917979;29;20567;-76
2023/04/13 12:18:12;;;;;;;11.07;2.75;;;11.70;99.90;;;;;;4931770;29;20557;-77
2023/04/13 12:20:39;;;;;;;10.90;2.70;;;11.70;99.90;;;;;;4945786;28;20079;-77
2023/04/13 12:23:24;;;;;;;11.32;2.60;;;11.40;99.90;;;;;;4935281;28;20082;-77
2023/04/13 12:25:57;;;;;;;10.38;2.80;;;11.00;99.90;;;;;;4952351;28;20047;-76
2023/04/13 12:28:34;;;;;;;11.55;2.80;;;10.60;99.90;;;;;;4938754;29;20055;-76
2023/04/13 12:31:11;;;;;;;11.57;2.72;;;10.40;99.90;;;;;;4935903;28;20045;-76
2023/04/13 12:33:38;;;;;;;8.25;2.83;;;10.40;99.90;;;;;;4936129;29;20047;-77
2023/04/13 12:36:05;;;;;;;13.43;2.75;;;10.70;99.90;;;;;;4932429;29;20059;-76
2023/04/13 12:38:31;;;;;;;12.75;3.05;;;10.90;99.90;;;;;;4951126;29;20074;-77
2023/04/13 12:40:58;;;;;;;8.95;2.80;;;11.00;99.90;;;;;;4935494;28;20043;-76
2023/04/13 12:43:25;;;;;;;11.23;2.63;;;11.00;99.90;;;;;;4927512;28;20043;-77
2023/04/13 12:45:51;;;;;;;11.20;3.45;;;11.00;99.90;;;;;;4930894;29;20039;-77
2023/04/13 12:48:17;;;;;;;10.73;2.95;;;11.00;99.90;;;;;;4951267;28;20364;-76
2023/04/13 12:50:43;;;;;;;9.25;2.28;;;11.40;99.90;;;;;;4952032;28;20510;-77
2023/04/13 12:53:10;;;;;;;10.57;2.80;;;11.40;99.90;;;;;;4945069;29;20044;-76
2023/04/13 12:55:36;;;;;;;10.80;2.90;;;11.40;99.90;;;;;;4945320;29;20079;-76
2023/04/13 12:58:02;;;;;;;10.50;3.47;;;11.50;99.90;;;;;;4951627;28;20142;-76
2023/04/13 13:00:30;;;;;;;11.88;2.70;;;12.30;99.90;;;;;;4950497;29;20558;-76
2023/04/13 13:02:55;;;;;;;9.50;2.45;;;13.50;99.90;;;;;;4929673;28;20168;-77
2023/04/13 13:05:24;;;;;;;8.55;2.17;;;14.00;99.90;;;;;;4946156;29;20138;-77
2023/04/13 13:07:50;;;;;;;11.60;2.83;;;13.80;99.90;;;;;;4952250;29;20039;-76
2023/04/13 13:10:16;;;;;;;11.07;2.63;;;13.20;99.90;;;;;;5035120;28;20047;-76
2023/04/13 13:12:41;;;;;;;8.95;2.67;;;13.40;99.90;;;;;;4942815;28;20415;-76
2023/04/13 13:15:09;;;;;;;8.57;2.17;;;13.70;99.90;;;;;;4950385;29;20075;-76